Time;durP1;ratioP1;P1;durP2;ratioP2;P2;SDS_P1;SDS_P2;PMS_P1;PMS_P2;Temp;Humidity;BMP_temperature;BMP_pressure;BME280_temperature;BME280_humidity;BME280_pressure;Samples;Min_cycle;Max_cycle;Signal;HPM_P1;HPM_P2
2023/01/29 00:02:14;;;;;;;;;;;;;;;;;;5011921;28;19917;-85
2023/01/29 00:04:39;;;;;;;;;;;;;;;;;;5010380;28;19971;-85
2023/01/29 00:07:04;;;;;;;;;;;;;;;;;;4994636;28;19985;-86
2023/01/29 00:09:30;;;;;;;;;;;;;;;;;;5003020;28;20417;-84
2023/01/29 00:11:55;;;;;;;;;;;;;;;;;;5011641;28;19925;-84
2023/01/29 00:14:20;;;;;;;;;;;;;;;;;;5008714;28;19938;-85
2023/01/29 00:16:46;;;;;;;;;;;;;;;;;;5009973;28;19917;-85
2023/01/29 00:19:11;;;;;;;;;;;;;;;;;;5011628;28;19936;-85
2023/01/29 00:21:36;;;;;;;;;;;;;;;;;;5014273;28;19956;-85
2023/01/29 00:24:01;;;;;;;;;;;;;;;;;;4998569;28;20208;-86
2023/01/29 00:26:26;;;;;;;;;;;;;;;;;;5015856;28;20003;-88
2023/01/29 00:28:51;;;;;;;;;;;;;;;;;;5014970;28;19921;-85
2023/01/29 00:31:16;;;;;;;;;;;;;;;;;;5016856;28;19917;-87
2023/01/29 00:33:42;;;;;;;;;;;;;;;;;;5017816;28;19913;-85
2023/01/29 00:36:07;;;;;;;;;;;;;;;;;;5017457;28;19920;-87
2023/01/29 00:38:32;;;;;;;;;;;;;;;;;;5017226;28;20020;-84
2023/01/29 00:46:24;;;;;;;;;;;;;;;;;;5015532;28;19963;-85
2023/01/29 00:48:50;;;;;;;;;;;;;;;;;;4997865;28;19917;-85
2023/01/29 00:51:15;;;;;;;;;;;;;;;;;;4997817;28;20386;-85
2023/01/29 00:53:40;;;;;;;;;;;;;;;;;;5015503;28;19936;-85
2023/01/29 00:56:05;;;;;;;;;;;;;;;;;;4996998;28;19915;-87
2023/01/29 00:58:33;;;;;;;;;;;;;;;;;;4996648;28;20425;-86
2023/01/29 01:00:58;;;;;;;;;;;;;;;;;;5015410;28;19924;-87
2023/01/29 01:03:24;;;;;;;;;;;;;;;;;;5014995;28;20350;-85
2023/01/29 01:05:49;;;;;;;;;;;;;;;;;;5015183;28;20330;-84
2023/01/29 01:10:58;;;;;;;;;;;;;;;;;;5015674;28;20410;-87
2023/01/29 01:13:23;;;;;;;;;;;;;;;;;;5015515;28;20367;-86
2023/01/29 01:15:48;;;;;;;;;;;;;;;;;;4997807;28;19997;-86
2023/01/29 01:18:15;;;;;;;;;;;;;;;;;;5014453;28;20350;-85
2023/01/29 01:20:40;;;;;;;;;;;;;;;;;;4996690;28;19914;-86
2023/01/29 01:23:05;;;;;;;;;;;;;;;;;;4997052;28;19970;-87
2023/01/29 01:25:31;;;;;;;;;;;;;;;;;;4996896;28;19924;-85
2023/01/29 01:27:56;;;;;;;;;;;;;;;;;;5014695;28;19913;-85
2023/01/29 01:30:21;;;;;;;;;;;;;;;;;;5014082;28;20379;-86
2023/01/29 01:32:47;;;;;;;;;;;;;;;;;;4996996;28;19913;-85
2023/01/29 01:35:13;;;;;;;;;;;;;;;;;;4996328;28;19914;-88
2023/01/29 01:37:38;;;;;;;;;;;;;;;;;;4996301;28;19920;-85
2023/01/29 01:40:04;;;;;;;;;;;;;;;;;;5013998;28;20282;-84
2023/01/29 01:42:29;;;;;;;;;;;;;;;;;;4995711;28;19944;-84
2023/01/29 01:45:03;;;;;;;;;;;;;;;;;;5013524;28;20278;-87
2023/01/29 01:47:28;;;;;;;;;;;;;;;;;;5014390;28;19928;-85
2023/01/29 01:49:53;;;;;;;;;;;;;;;;;;4996002;28;20015;-87
2023/01/29 01:52:18;;;;;;;;;;;;;;;;;;4996169;28;19920;-86
2023/01/29 01:54:43;;;;;;;;;;;;;;;;;;4996621;28;19913;-85
2023/01/29 01:57:10;;;;;;;;;;;;;;;;;;4996239;28;20402;-85
2023/01/29 01:59:35;;;;;;;;;;;;;;;;;;4996647;28;20397;-85
2023/01/29 02:10:12;;;;;;;;;;;;;;;;;;4994480;28;20405;-87
2023/01/29 02:12:37;;;;;;;;;;;;;;;;;;5008335;28;19920;-86
2023/01/29 02:15:02;;;;;;;;;;;;;;;;;;5014291;28;19918;-88
2023/01/29 02:17:27;;;;;;;;;;;;;;;;;;5014036;28;19996;-86
2023/01/29 02:19:53;;;;;;;;;;;;;;;;;;4996673;28;19914;-88
2023/01/29 02:22:19;;;;;;;;;;;;;;;;;;4996151;28;20313;-86
2023/01/29 02:24:44;;;;;;;;;;;;;;;;;;4996773;28;20009;-88
2023/01/29 02:27:09;;;;;;;;;;;;;;;;;;5014434;28;20013;-84
2023/01/29 02:29:34;;;;;;;;;;;;;;;;;;4997466;28;19961;-88
2023/01/29 02:32:00;;;;;;;;;;;;;;;;;;5003858;28;20001;-84
2023/01/29 02:34:25;;;;;;;;;;;;;;;;;;5009784;28;20028;-91
2023/01/29 02:36:50;;;;;;;;;;;;;;;;;;5007851;28;19925;-86
2023/01/29 02:39:15;;;;;;;;;;;;;;;;;;4999653;28;19944;-88
2023/01/29 02:41:40;;;;;;;;;;;;;;;;;;4998188;28;19929;-85
2023/01/29 02:44:05;;;;;;;;;;;;;;;;;;5015928;28;19914;-87
2023/01/29 02:46:30;;;;;;;;;;;;;;;;;;5001298;28;19943;-85
2023/01/29 02:48:56;;;;;;;;;;;;;;;;;;5018853;28;19932;-87
2023/01/29 02:51:21;;;;;;;;;;;;;;;;;;5001036;28;20286;-85
2023/01/29 02:53:47;;;;;;;;;;;;;;;;;;5001273;28;19928;-87
2023/01/29 02:56:12;;;;;;;;;;;;;;;;;;5001196;28;19921;-90
2023/01/29 02:58:37;;;;;;;;;;;;;;;;;;5001385;28;19910;-85
2023/01/29 03:01:03;;;;;;;;;;;;;;;;;;5015052;28;20453;-85
2023/01/29 03:03:28;;;;;;;;;;;;;;;;;;5013904;28;19917;-83
2023/01/29 03:05:53;;;;;;;;;;;;;;;;;;5012969;28;19939;-86
2023/01/29 03:08:18;;;;;;;;;;;;;;;;;;4995169;28;19963;-87
2023/01/29 03:10:44;;;;;;;;;;;;;;;;;;4996005;28;19914;-84
2023/01/29 03:13:09;;;;;;;;;;;;;;;;;;4996212;28;20288;-85
2023/01/29 03:15:37;;;;;;;;;;;;;;;;;;4995770;28;19940;-84
2023/01/29 03:18:03;;;;;;;;;;;;;;;;;;4995803;28;20008;-85
2023/01/29 03:20:28;;;;;;;;;;;;;;;;;;5013754;28;19945;-84
2023/01/29 03:22:53;;;;;;;;;;;;;;;;;;5013310;28;19917;-85
2023/01/29 03:33:31;;;;;;;;;;;;;;;;;;5012235;28;19924;-84
2023/01/29 03:35:57;;;;;;;;;;;;;;;;;;4994529;28;19913;-83
2023/01/29 03:38:30;;;;;;;;;;;;;;;;;;5011272;28;19925;-85
2023/01/29 03:40:55;;;;;;;;;;;;;;;;;;4994013;28;20306;-83
2023/01/29 03:43:20;;;;;;;;;;;;;;;;;;4993318;28;20546;-85
2023/01/29 03:45:45;;;;;;;;;;;;;;;;;;5009225;28;19920;-88
2023/01/29 03:48:11;;;;;;;;;;;;;;;;;;5000080;28;19980;-84
2023/01/29 03:50:36;;;;;;;;;;;;;;;;;;5008851;28;19940;-86
2023/01/29 03:53:01;;;;;;;;;;;;;;;;;;5015264;28;19917;-85
2023/01/29 03:55:26;;;;;;;;;;;;;;;;;;4993711;28;20059;-86
2023/01/29 03:57:52;;;;;;;;;;;;;;;;;;5011107;28;19921;-85
2023/01/29 04:00:20;;;;;;;;;;;;;;;;;;4989635;28;20303;-85
2023/01/29 04:02:45;;;;;;;;;;;;;;;;;;4997112;28;19966;-83
2023/01/29 04:05:10;;;;;;;;;;;;;;;;;;5014949;28;19944;-85
2023/01/29 04:07:35;;;;;;;;;;;;;;;;;;5014475;28;19918;-84
2023/01/29 04:10:00;;;;;;;;;;;;;;;;;;5002081;28;19996;-86
2023/01/29 04:12:25;;;;;;;;;;;;;;;;;;5014478;28;19933;-85
2023/01/29 04:14:50;;;;;;;;;;;;;;;;;;4997013;28;19921;-84
2023/01/29 04:17:31;;;;;;;6.95;5.03;;;;;;;;;;5014505;28;19914;-83
2023/01/29 04:19:57;;;;;;;7.88;6.43;;;;;;;;;;4995647;28;20545;-84
2023/01/29 04:22:33;;;;;;;7.53;6.38;;;;;;;;;;5013066;28;20853;-84
2023/01/29 04:25:01;;;;;;;8.88;6.82;;;;;;;;;;5012829;28;20508;-84
2023/01/29 04:27:27;;;;;;;;;;;;;;;;;;5014892;28;20034;-84
2023/01/29 04:29:52;;;;;;;;;;;;;;;;;;5014508;28;19941;-85
2023/01/29 04:32:17;;;;;;;9.27;6.25;;;;;;;;;;4978906;28;19918;-85
2023/01/29 04:35:01;;;;;;;10.18;7.50;;;;;;;;;;4994113;28;20402;-86
2023/01/29 04:37:32;;;;;;;8.70;6.78;;;;;;;;;;4986088;28;20762;-86
2023/01/29 04:40:00;;;;;;;8.55;7.13;;;;;;;;;;4995351;28;20872;-85
2023/01/29 04:42:30;;;;;;;8.93;7.60;;;;;;;;;;4995094;28;20472;-83
2023/01/29 04:44:55;;;;;;;;;;;;;;;;;;5000738;28;20556;-83
2023/01/29 04:47:20;;;;;;;;;;;;;;;;;;5009227;28;19953;-85
2023/01/29 04:49:46;;;;;;;;;;;;;;;;;;5013067;28;20092;-83
2023/01/29 04:52:11;;;;;;;;;;;;;;;;;;4994170;28;19968;-84
2023/01/29 04:54:36;;;;;;;;;;;;;;;;;;5011755;28;19932;-83
2023/01/29 04:57:01;;;;;;;;;;;;;;;;;;4995163;28;19929;-85
2023/01/29 04:59:26;;;;;;;;;;;;;;;;;;5011583;28;19971;-84
2023/01/29 05:01:51;;;;;;;;;;;;;;;;;;4991151;28;19925;-84
2023/01/29 05:04:17;;;;;;;;;;;;;;;;;;5012483;28;20334;-87
2023/01/29 05:06:42;;;;;;;;;;;;;;;;;;4995486;28;19917;-84
2023/01/29 05:09:07;;;;;;;;;;;;;;;;;;5003699;28;19959;-84
2023/01/29 05:11:32;;;;;;;;;;;;;;;;;;4996096;28;19925;-84
2023/01/29 05:13:57;;;;;;;;;;;;;;;;;;4995226;28;19913;-85
2023/01/29 05:16:22;;;;;;;;;;;;;;;;;;4995770;28;19913;-84
2023/01/29 05:18:47;;;;;;;;;;;;;;;;;;5013822;28;19918;-84
2023/01/29 05:21:13;;;;;;;8.35;5.78;;;;;;;;;;5012710;28;20858;-86
2023/01/29 05:23:38;;;;;;;7.25;5.00;;;;;;;;;;5013021;28;20129;-86
2023/01/29 05:26:03;;;;;;;7.27;5.20;;;;;;;;;;5013569;28;20045;-86
2023/01/29 05:28:28;;;;;;;6.60;4.85;;;;;;;;;;5013787;28;20034;-87
2023/01/29 05:30:55;;;;;;;7.03;4.57;;;;;;;;;;5013696;28;20525;-86
2023/01/29 05:33:23;;;;;;;6.93;4.30;;;;;;;;;;5000930;28;20458;-85
2023/01/29 05:35:49;;;;;;;6.90;4.63;;;;;;;;;;5000537;28;20112;-86
2023/01/29 05:38:15;;;;;;;7.47;5.05;;;;;;;;;;5014307;28;20038;-86
2023/01/29 05:40:40;;;;;;;7.47;4.93;;;;;;;;;;5015254;28;20045;-84
2023/01/29 05:43:13;;;;;;;9.20;5.90;;;;;;;;;;4997374;28;20571;-85
2023/01/29 05:45:38;;;;;;;10.73;6.75;;;;;;;;;;4997414;28;20121;-84
2023/01/29 05:48:03;;;;;;;10.60;6.90;;;;;;;;;;4998201;28;20500;-84
2023/01/29 05:50:28;;;;;;;9.40;6.25;;;;;;;;;;4996050;28;20091;-87
2023/01/29 05:53:00;;;;;;;12.48;7.00;;;;;;;;;;4995598;28;20407;-84
2023/01/29 05:55:25;;;;;;;10.02;6.80;;;;;;;;;;4995710;28;20574;-84
2023/01/29 05:57:51;;;;;;;10.38;6.47;;;;;;;;;;4994488;28;20127;-86
2023/01/29 06:00:16;;;;;;;11.23;6.73;;;;;;;;;;5012184;28;20042;-83
2023/01/29 06:02:41;;;;;;;12.20;6.50;;;;;;;;;;4996547;28;20113;-85
2023/01/29 06:05:07;;;;;;;8.25;6.47;;;;;;;;;;4996351;28;20037;-83
2023/01/29 06:07:32;;;;;;;9.57;6.47;;;;;;;;;;4995680;28;20526;-85
2023/01/29 06:09:57;;;;;;;10.00;6.60;;;;;;;;;;4995791;28;20034;-87
2023/01/29 06:12:22;;;;;;;9.90;6.53;;;;;;;;;;5018473;28;20060;-88
2023/01/29 06:14:48;;;;;;;11.20;6.53;;;;;;;;;;5004527;28;20037;-88
2023/01/29 06:17:13;;;;;;;9.57;5.97;;;;;;;;;;5000734;28;20038;-84
2023/01/29 06:19:38;;;;;;;9.80;6.07;;;;;;;;;;4995978;28;20257;-87
2023/01/29 06:22:03;;;;;;;8.47;5.77;;;;;;;;;;4995286;28;20062;-85
2023/01/29 06:24:28;;;;;;;11.27;7.57;;;;;;;;;;4997424;28;20277;-85
2023/01/29 06:26:53;;;;;;;13.10;7.40;;;;;;;;;;4998134;28;20053;-85
2023/01/29 06:29:19;;;;;;;10.77;7.60;;;;;;;;;;4999730;28;20038;-87
2023/01/29 06:31:44;;;;;;;10.77;7.70;;;;;;;;;;5016294;28;20097;-84
2023/01/29 06:34:09;;;;;;;12.63;8.50;;;;;;;;;;4987293;28;20038;-84
2023/01/29 06:36:34;;;;;;;12.80;7.10;;;;;;;;;;5004388;28;20041;-85
2023/01/29 06:38:59;;;;;;;11.90;7.43;;;;;;;;;;4996151;28;20061;-84
2023/01/29 06:41:25;;;;;;;12.73;8.05;;;;;;;;;;4996021;28;20034;-86
2023/01/29 06:43:50;;;;;;;11.57;7.43;;;;;;;;;;4996340;28;20541;-84
2023/01/29 06:46:15;;;;;;;10.52;7.07;;;;;;;;;;4994723;28;20845;-86
2023/01/29 06:48:40;;;;;;;9.52;6.40;;;;;;;;;;4994932;28;20058;-84
2023/01/29 06:51:07;;;;;;;11.90;7.57;;;;;;;;;;5012825;28;20602;-85
2023/01/29 06:53:32;;;;;;;9.55;6.40;;;;;;;;;;4995154;28;20538;-83
2023/01/29 06:55:58;;;;;;;11.60;6.45;;;;;;;;;;4996621;28;20037;-86
2023/01/29 06:58:23;;;;;;;10.95;7.07;;;;;;;;;;5018691;28;20037;-83
2023/01/29 07:00:48;;;;;;;9.65;6.50;;;;;;;;;;5003132;28;20030;-87
2023/01/29 07:03:14;;;;;;;8.60;6.13;;;;;;;;;;5025120;28;20061;-87
2023/01/29 07:05:39;;;;;;;11.03;6.40;;;;;;;;;;5017190;28;20045;-85
2023/01/29 07:08:04;;;;;;;8.70;6.03;;;;;;;;;;4999150;28;20283;-84
2023/01/29 07:10:30;;;;;;;8.65;6.10;;;;;;;;;;4998356;28;20042;-85
2023/01/29 07:12:55;;;;;;;8.57;5.78;;;;;;;;;;5017992;28;20121;-86
2023/01/29 07:15:20;;;;;;;7.40;4.93;;;;;;;;;;5000626;28;20041;-85
2023/01/29 07:17:56;;;;;;;7.07;4.47;;;;;;;;;;4996554;28;20453;-84
2023/01/29 07:20:21;;;;;;;6.57;4.80;;;;;;;;;;5011371;28;20038;-85
2023/01/29 07:22:46;;;;;;;5.93;3.63;;;;;;;;;;4994958;28;20030;-84
2023/01/29 07:25:11;;;;;;;8.10;5.63;;;;;;;;;;5012929;28;20353;-84
2023/01/29 07:27:36;;;;;;;9.60;6.50;;;;;;;;;;5017121;28;20034;-87
2023/01/29 07:30:02;;;;;;;10.45;6.70;;;;;;;;;;4998013;28;20281;-84
2023/01/29 07:32:27;;;;;;;11.13;6.60;;;;;;;;;;5016797;28;20033;-84
2023/01/29 07:34:52;;;;;;;13.85;7.97;;;;;;;;;;5015989;28;20038;-85
2023/01/29 07:37:18;;;;;;;10.77;6.87;;;;;;;;;;4998464;28;20046;-85
2023/01/29 07:39:43;;;;;;;10.30;6.40;;;;;;;;;;4997888;28;20057;-85
2023/01/29 07:42:11;;;;;;;8.32;6.15;;;;;;;;;;5014885;28;20100;-86
2023/01/29 07:44:37;;;;;;;9.32;6.40;;;;;;;;;;5016974;28;20041;-84
2023/01/29 07:47:02;;;;;;;9.57;6.55;;;;;;;;;;4998829;28;20034;-84
2023/01/29 07:49:27;;;;;;;7.15;5.45;;;;;;;;;;5015894;28;20137;-85
2023/01/29 07:51:52;;;;;;;9.00;5.60;;;;;;;;;;5013577;28;20117;-85
2023/01/29 07:54:18;;;;;;;8.45;5.70;;;;;;;;;;4999229;28;20312;-85
2023/01/29 07:56:43;;;;;;;10.00;6.93;;;;;;;;;;5012800;28;20073;-84
2023/01/29 07:59:08;;;;;;;11.60;7.97;;;;;;;;;;4997506;28;20309;-85
2023/01/29 08:01:33;;;;;;;11.80;6.80;;;;;;;;;;4997847;28;20042;-84
2023/01/29 08:03:58;;;;;;;10.17;6.43;;;;;;;;;;4997963;28;20026;-85
2023/01/29 08:06:24;;;;;;;8.40;6.35;;;;;;;;;;5014952;28;20770;-84
2023/01/29 08:08:49;;;;;;;12.20;8.30;;;;;;;;;;4998012;28;20026;-85
2023/01/29 08:11:14;;;;;;;11.55;7.38;;;;;;;;;;5014679;28;20030;-85
2023/01/29 08:13:39;;;;;;;9.47;6.60;;;;;;;;;;5014915;28;20045;-83
2023/01/29 08:16:05;;;;;;;8.97;5.63;;;;;;;;;;4997463;28;20801;-86
2023/01/29 08:18:30;;;;;;;9.00;6.35;;;;;;;;;;4996094;28;20097;-84
2023/01/29 08:20:59;;;;;;;8.85;6.50;;;;;;;;;;5012979;28;20034;-85
2023/01/29 08:23:24;;;;;;;10.18;7.38;;;;;;;;;;4994226;28;20069;-86
2023/01/29 08:25:50;;;;;;;10.73;7.50;;;;;;;;;;5015209;28;20388;-84
2023/01/29 08:28:15;;;;;;;9.97;6.90;;;;;;;;;;5015126;28;20038;-86
2023/01/29 08:30:40;;;;;;;10.53;6.63;;;;;;;;;;5017163;28;20418;-84
2023/01/29 08:33:05;;;;;;;8.90;6.27;;;;;;;;;;5002312;28;20037;-86
2023/01/29 08:35:30;;;;;;;7.43;5.40;;;;;;;;;;4998891;28;20038;-85
2023/01/29 08:37:58;;;;;;;11.27;7.90;;;;;;;;;;4998317;28;20042;-85
2023/01/29 08:40:23;;;;;;;9.60;6.80;;;;;;;;;;4993792;28;20273;-84
2023/01/29 08:42:48;;;;;;;8.52;6.10;;;;;;;;;;5012771;28;20507;-85
2023/01/29 08:45:14;;;;;;;8.77;6.30;;;;;;;;;;4997811;28;20499;-84
2023/01/29 08:47:44;;;;;;;9.98;7.15;;;;;;;;;;4997734;28;20129;-84
2023/01/29 08:50:09;;;;;;;8.20;5.90;;;;;;;;;;5014921;28;20038;-83
2023/01/29 08:52:34;;;;;;;9.05;5.68;;;;;;;;;;5019339;28;20034;-85
2023/01/29 08:55:00;;;;;;;9.00;6.33;;;;;;;;;;5019846;28;20034;-87
2023/01/29 08:57:25;;;;;;;8.77;6.00;;;;;;;;;;4998655;28;20038;-84
2023/01/29 08:59:50;;;;;;;8.37;6.13;;;;;;;;;;5005096;28;20069;-83
2023/01/29 09:02:15;;;;;;;8.70;6.05;;;;;;;;;;5015578;28;20034;-84
2023/01/29 09:04:40;;;;;;;11.30;6.43;;;;;;;;;;5000204;28;20034;-87
2023/01/29 09:07:05;;;;;;;8.93;6.30;;;;;;;;;;5000540;28;20030;-85
2023/01/29 09:09:31;;;;;;;8.13;5.90;;;;;;;;;;5004309;28;20037;-90
2023/01/29 09:11:56;;;;;;;7.53;5.50;;;;;;;;;;5021992;28;20265;-85
2023/01/29 09:14:21;;;;;;;6.10;4.87;;;;;;;;;;5003653;28;20046;-87
2023/01/29 09:16:46;;;;;;;6.80;4.85;;;;;;;;;;5001108;28;20044;-84
2023/01/29 09:19:11;;;;;;;5.33;4.07;;;;;;;;;;4999300;28;20096;-86
2023/01/29 09:21:37;;;;;;;6.13;4.70;;;;;;;;;;5000315;28;20048;-84
2023/01/29 09:24:02;;;;;;;7.60;5.20;;;;;;;;;;4993068;28;20057;-84
2023/01/29 09:26:27;;;;;;;6.68;4.60;;;;;;;;;;4989896;28;20054;-82
2023/01/29 09:28:52;;;;;;;6.40;4.57;;;;;;;;;;4998176;28;20037;-84
2023/01/29 09:31:17;;;;;;;6.38;4.57;;;;;;;;;;5015660;28;20044;-84
2023/01/29 09:33:43;;;;;;;5.87;4.17;;;;;;;;;;5002107;28;20093;-85
2023/01/29 09:36:08;;;;;;;8.10;5.60;;;;;;;;;;4997445;28;20060;-84
2023/01/29 09:38:33;;;;;;;6.63;4.57;;;;;;;;;;5014952;28;20281;-84
2023/01/29 09:41:01;;;;;;;5.97;4.15;;;;;;;;;;4999720;28;20369;-83
2023/01/29 09:43:46;;;;;;;6.10;4.50;;;;;;;;;;4988355;28;20046;-83
2023/01/29 09:46:14;;;;;;;6.03;4.32;;;;;;;;;;4994512;28;20038;-85
2023/01/29 09:48:40;;;;;;;6.53;4.32;;;;;;;;;;4995106;28;20428;-85
2023/01/29 09:51:11;;;;;;;5.22;4.25;;;;;;;;;;5008973;28;20034;-85
2023/01/29 09:53:44;;;;;;;5.85;4.10;;;;;;;;;;4990929;28;20037;-83
2023/01/29 09:56:09;;;;;;;4.15;3.40;;;;;;;;;;4994028;28;20100;-83
2023/01/29 09:58:36;;;;;;;5.23;3.50;;;;;;;;;;4990636;28;20039;-84
2023/01/29 10:01:12;;;;;;;4.45;3.42;;;;;;;;;;4989873;28;20076;-84
2023/01/29 10:03:43;;;;;;;6.07;5.20;;;;;;;;;;5005083;28;20042;-84
2023/01/29 10:06:23;;;;;;;6.03;4.80;;;;;;;;;;5007189;28;20046;-85
2023/01/29 10:08:56;;;;;;;8.82;5.47;;;;;;;;;;4989465;28;20404;-84
2023/01/29 10:11:31;;;;;;;8.85;6.57;;;;;;;;;;4989797;28;20438;-85
2023/01/29 10:13:59;;;;;;;11.38;7.57;;;;;;;;;;5002860;28;20073;-84
2023/01/29 10:16:30;;;;;;;11.02;7.80;;;;;;;;;;5010443;28;20030;-85
2023/01/29 10:19:19;;;;;;;10.88;7.57;;;;;;;;;;4998219;28;20097;-85
2023/01/29 10:22:05;;;;;;;13.25;8.85;;;;;;;;;;5008744;28;20034;-85
2023/01/29 10:24:36;;;;;;;12.60;8.65;;;;;;;;;;4997027;28;20499;-85
2023/01/29 10:27:02;;;;;;;11.10;7.88;;;;;;;;;;4939377;28;253591;-86
2023/01/29 10:31:19;;;;;;;14.48;10.63;;;;;;;;;;5055843;27;20410;-84
2023/01/29 10:33:48;;;;;;;13.55;9.18;;;;;;;;;;5040788;28;79759;-84
2023/01/29 10:36:18;;;;;;;12.40;8.02;;;;;;;;;;5057562;23;20043;-87
2023/01/29 10:38:47;;;;;;;11.90;7.82;;;;;;;;;;5017427;28;20390;-86
2023/01/29 10:41:38;;;;;;;16.33;9.75;;;;;;;;;;5048336;28;20426;-85
2023/01/29 10:44:03;;;;;;;12.40;8.20;;;;;;;;;;5030777;28;20068;-86
2023/01/29 10:46:37;;;;;;;10.97;7.90;;;;;;;;;;5060887;28;20043;-85
2023/01/29 10:49:20;;;;;;;13.18;8.75;;;;;;;;;;5053758;28;20049;-87
2023/01/29 10:51:49;;;;;;;13.70;9.38;;;;;;;;;;5047767;28;20044;-87
2023/01/29 10:54:32;;;;;;;13.95;9.20;;;;;;;;;;5043423;28;20091;-85
2023/01/29 10:57:10;;;;;;;14.55;9.32;;;;;;;;;;5050214;28;20132;-86
2023/01/29 10:59:54;;;;;;;15.85;9.75;;;;;;;;;;5057991;28;20051;-86
2023/01/29 11:02:20;;;;;;;12.05;8.00;;;;;;;;;;5064714;28;20048;-86
2023/01/29 11:04:46;;;;;;;14.20;9.65;;;;;;;;;;5047023;28;20056;-86
2023/01/29 11:07:12;;;;;;;11.30;7.68;;;;;;;;;;5059059;28;20041;-85
2023/01/29 11:09:43;;;;;;;11.60;7.70;;;;;;;;;;5057077;28;20040;-86
2023/01/29 11:12:18;;;;;;;12.15;8.40;;;;;;;2.66;nan;101412.03;5049920;28;20079;-86
2023/01/29 11:14:43;;;;;;;11.60;8.65;;;;;;;;;;5051652;28;20037;-87
2023/01/29 11:17:16;;;;;;;13.93;8.85;;;;;;;;;;5052564;28;20493;-85
2023/01/29 11:19:43;;;;;;;13.52;9.18;;;;;;;;;;5051957;28;20062;-85
2023/01/29 11:22:15;;;;;;;11.35;7.80;;;;;;;;;;5062611;28;20048;-87
2023/01/29 11:24:41;;;;;;;10.48;7.25;;;;;;;;;;5056681;28;20041;-86
2023/01/29 11:27:14;;;;;;;10.88;7.63;;;;;;;;;;5046100;28;20051;-85
2023/01/29 11:29:43;;;;;;;11.88;8.25;;;;;;;;;;5055369;28;20053;-86
2023/01/29 11:32:18;;;;;;;11.52;7.88;;;;;;;;;;5042685;28;20045;-86
2023/01/29 11:34:55;;;;;;;12.77;8.88;;;;;;;;;;5047237;28;20049;-86
2023/01/29 11:37:21;;;;;;;12.85;9.15;;;;;;;;;;5063308;28;20033;-87
2023/01/29 11:39:46;;;;;;;15.15;10.18;;;;;;;;;;5065779;28;20029;-86
2023/01/29 11:42:21;;;;;;;13.27;8.85;;;;;;;;;;5035463;28;20037;-87
2023/01/29 11:44:46;;;;;;;16.48;10.68;;;;;;;;;;5042332;28;20049;-86
2023/01/29 11:47:16;;;;;;;13.90;8.67;;;;;;;;;;5038637;28;20740;-87
2023/01/29 11:49:45;;;;;;;11.52;8.02;;;;;;;;;;5040823;28;20136;-86
2023/01/29 11:52:12;;;;;;;10.00;7.13;;;;;;;;;;5042169;28;20029;-86
2023/01/29 11:54:39;;;;;;;13.10;9.10;;;;;;;;;;5040873;28;20037;-86
2023/01/29 11:57:14;;;;;;;11.93;8.45;;;;;;;;;;5034348;28;20096;-86
2023/01/29 11:59:43;;;;;;;11.32;7.30;;;;;;;;;;5038889;28;20037;-88
2023/01/29 12:02:27;;;;;;;12.75;8.15;;;;;;;;;;5034643;28;20053;-85
2023/01/29 12:04:56;;;;;;;12.73;8.73;;;;;;;;;;5031302;28;20368;-86
2023/01/29 12:07:22;;;;;;;15.27;9.25;;;;;;;;;;5037680;28;20095;-87
2023/01/29 12:09:55;;;;;;;13.70;9.40;;;;;;;;;;5041956;28;20116;-86
2023/01/29 12:12:40;;;;;;;14.93;9.75;;;;;;;;;;5036431;28;20042;-86
2023/01/29 12:15:20;;;;;;;13.57;9.27;;;;;;;;;;5031485;28;20116;-87
2023/01/29 12:18:01;;;;;;;15.00;10.13;;;;;;;;;;5039893;28;20061;-86
2023/01/29 12:20:29;;;;;;;13.93;9.00;;;;;;;;;;5036842;28;20299;-86
2023/01/29 12:23:04;;;;;;;17.23;10.85;;;;;;;;;;5032878;28;20041;-86
2023/01/29 12:25:48;;;;;;;14.65;10.15;;;;;;;;;;5032565;28;20116;-86
2023/01/29 12:28:32;;;;;;;21.15;14.70;;;;;;;;;;5046920;28;20037;-86
2023/01/29 12:31:12;;;;;;;16.95;11.23;;;;;;;;;;5030207;28;20635;-85
2023/01/29 12:33:41;;;;;;;15.90;10.88;;;;;;;;;;5037152;28;20034;-86
2023/01/29 12:36:15;;;;;;;26.67;16.45;;;;;;;;;;5038584;28;20059;-86
2023/01/29 12:38:42;;;;;;;29.50;16.63;;;;;;;;;;5038051;28;20578;-85
2023/01/29 12:41:17;;;;;;;33.47;19.58;;;;;;;;;;5031188;28;20406;-86
2023/01/29 12:43:47;;;;;;;35.92;19.75;;;;;;;;;;5036714;28;20041;-86
2023/01/29 12:46:20;;;;;;;16.17;11.05;;;;;;;;;;5039506;28;20578;-85
2023/01/29 12:48:46;;;;;;;18.52;12.57;;;;;;;;;;5031902;28;20047;-87
2023/01/29 12:51:20;;;;;;;20.30;12.43;;;;;;;;;;5033299;28;20048;-86
2023/01/29 12:53:53;;;;;;;17.42;11.00;;;;;;;;;;5043893;28;20046;-86
2023/01/29 12:56:19;;;;;;;16.80;9.90;;;;;;;;;;5043765;28;20124;-86
2023/01/29 12:58:46;;;;;;;17.48;11.23;;;;;;;;;;5034008;28;20487;-87
2023/01/29 13:01:14;;;;;;;14.50;10.05;;;;;;;;;;5051027;28;20044;-86
2023/01/29 13:03:51;;;;;;;16.40;10.68;;;;;;;;;;5044135;28;20505;-86
2023/01/29 13:06:19;;;;;;;13.88;9.60;;;;;;;;;;5037606;28;20037;-87
2023/01/29 13:08:50;;;;;;;17.42;10.73;;;;;;;;;;5042264;28;20263;-86
2023/01/29 13:11:26;;;;;;;18.13;10.77;;;;;;;;;;5023268;28;20064;-86
2023/01/29 13:13:55;;;;;;;14.27;9.25;;;;;;;;;;5034041;28;20032;-86
2023/01/29 13:16:22;;;;;;;16.95;10.30;;;;;;;;;;5031800;28;20045;-86
2023/01/29 13:18:47;;;;;;;15.52;9.75;;;;;;;;;;5040786;28;20414;-87
2023/01/29 13:21:17;;;;;;;14.68;9.30;;;;;;;;;;5041042;28;20121;-87
2023/01/29 13:23:46;;;;;;;15.02;10.07;;;;;;;;;;5037450;28;20117;-87
2023/01/29 13:26:12;;;;;;;15.48;9.82;;;;;;;;;;5029880;28;20044;-87
2023/01/29 13:28:37;;;;;;;17.33;11.10;;;;;;;;;;5045021;28;20116;-86
2023/01/29 13:31:17;;;;;;;15.40;10.25;;;;;;;;;;5034213;28;20105;-86
2023/01/29 13:33:50;;;;;;;14.68;9.88;;;;;;;;;;5043300;28;20048;-86
2023/01/29 13:36:18;;;;;;;15.10;9.77;;;;;;;;;;5041057;28;20059;-86
2023/01/29 13:38:44;;;;;;;17.90;11.27;;;;;;;;;;5035109;28;20087;-87
2023/01/29 13:41:09;;;;;;;15.18;9.80;;;;;;;;;;5026878;28;20034;-85
2023/01/29 13:43:36;;;;;;;15.95;10.73;;;;;;;;;;5035877;28;20612;-86
2023/01/29 13:46:06;;;;;;;16.80;10.50;;;;;;;;;;5038246;28;20120;-86
2023/01/29 13:48:35;;;;;;;13.75;9.43;;;;;;;;;;5046939;28;20041;-86
2023/01/29 13:51:02;;;;;;;15.40;9.68;;;;;;;;;;5033116;28;20049;-86
2023/01/29 13:53:38;;;;;;;14.38;9.32;;;;;;;;;;5034122;28;20038;-86
2023/01/29 13:56:22;;;;;;;15.23;9.50;;;;;;;;;;5035064;28;20179;-86
2023/01/29 13:58:51;;;;;;;17.15;10.63;;;;;;;;;;5037614;28;20109;-85
2023/01/29 14:01:37;;;;;;;15.57;10.23;;;;;;;;;;5030608;28;20029;-86
2023/01/29 14:04:13;;;;;;;16.10;10.70;;;;;;;;;;5036960;28;20434;-86
2023/01/29 14:06:40;;;;;;;16.65;10.70;;;;;;;;;;5028282;28;20137;-87
2023/01/29 14:09:26;;;;;;;16.63;10.68;;;;;;;;;;5034888;28;20065;-86
2023/01/29 14:11:51;;;;;;;17.23;11.25;;;;;;;;;;5033731;28;20049;-86
2023/01/29 14:14:35;;;;;;;17.15;10.07;;;;;;;;;;5026996;28;20035;-86
2023/01/29 14:17:01;;;;;;;18.30;10.48;;;;;;;;;;5038988;28;20124;-85
2023/01/29 14:19:27;;;;;;;16.98;10.38;;;;;;;;;;5028242;28;20511;-86
2023/01/29 14:21:52;;;;;;;16.77;10.38;;;;;;;;;;5028085;28;20075;-85
2023/01/29 14:24:19;;;;;;;15.30;9.70;;;;;;;;;;5032145;28;20116;-86
2023/01/29 14:26:46;;;;;;;16.67;10.50;;;;;;;;;;5029639;28;20272;-85
2023/01/29 14:29:11;;;;;;;18.25;10.50;;;;;;;;;;5030120;28;20099;-86
2023/01/29 14:31:52;;;;;;;13.90;9.33;;;;;;;;;;5030697;28;20276;-86
2023/01/29 14:34:20;;;;;;;16.02;10.20;;;;;;;;;;5031248;28;20060;-85
2023/01/29 14:36:46;;;;;;;13.55;9.25;;;;;;;;;;5032832;28;20033;-86
2023/01/29 14:39:28;;;;;;;14.52;8.80;;;;;;;;;;5040047;28;20037;-85
2023/01/29 14:41:53;;;;;;;18.23;11.82;;;;;;;;;;5032469;28;20095;-85
2023/01/29 14:44:37;;;;;;;14.98;9.88;;;;;;;;;;5031716;28;20033;-86
2023/01/29 14:47:03;;;;;;;16.48;9.88;;;;;;;;;;5030837;28;20127;-86
2023/01/29 14:49:47;;;;;;;16.13;10.30;;;;;;;;;;5035789;28;20045;-86
2023/01/29 14:52:13;;;;;;;14.95;9.25;;;;;;;;;;5046050;28;20133;-86
2023/01/29 14:54:39;;;;;;;13.85;9.20;;;;;;;;;;5024028;28;20518;-86
2023/01/29 14:57:07;;;;;;;14.55;8.95;;;;;;;;;;5024563;28;20074;-85
2023/01/29 14:59:36;;;;;;;15.10;9.25;;;;;;;;;;5024853;28;20027;-85
2023/01/29 15:02:09;;;;;;;16.40;9.63;;;;;;;;;;5039778;28;20538;-86
2023/01/29 15:04:39;;;;;;;15.27;9.23;;;;;;;;;;5035925;28;20095;-85
2023/01/29 15:07:10;;;;;;;14.82;9.55;;;;;;;;;;5029497;28;20383;-86
2023/01/29 15:09:35;;;;;;;;;;;;;;;;;;5038416;28;20049;-85
2023/01/29 15:12:12;;;;;;;16.77;10.48;;;;;;;;;;5039707;28;19917;-85
2023/01/29 15:14:45;;;;;;;17.92;10.10;;;;;;;;;;5031261;28;20034;-86
2023/01/29 15:17:15;;;;;;;17.35;9.98;;;;;;;;;;5044280;28;20044;-85
2023/01/29 15:19:43;;;;;;;17.57;10.27;;;;;;;;;;5040172;28;20083;-85
2023/01/29 15:22:16;;;;;;;17.13;9.95;;;;;;;;;;5033005;28;20045;-85
2023/01/29 15:24:42;;;;;;;15.10;9.82;;;;;;;;;;5038144;28;20050;-85
2023/01/29 15:27:16;;;;;;;17.88;11.07;;;;;;;;;;5041271;28;20108;-85
2023/01/29 15:29:42;;;;;;;16.05;9.68;;;;;;;;;;5059348;28;20038;-85
2023/01/29 15:32:14;;;;;;;16.80;10.48;;;;;;;;;;5037895;28;20034;-85
2023/01/29 15:34:41;;;;;;;15.35;9.73;;;;;;;;;;5036306;28;20617;-85
2023/01/29 15:37:22;;;;;;;16.33;10.20;;;;;;;;;;5034901;28;20136;-85
2023/01/29 15:39:47;;;;;;;15.98;10.23;;;;;;;;;;5034786;28;20046;-85